Terminal Aerodrome Forecast
Issued by NWS

Home | Current Version | Previous Version | Text Only | Print | Product List | Glossary On
Versions: 1 2 3 4 5 6 7 8 9 10 11 12 13 14 15 16 17 18
000
FTUS46 KSGX 301720
TAFTRM
TAF
KTRM 301720Z 3018/3118 VRB06KT 6SM HZ BKN013
     FM301900 14011G18KT P6SM FEW010 SCT150
     FM310200 VRB05KT P6SM SCT250=

USA.gov is the U.S. government's official web portal to all federal, state and local government web resources and services.